• Join FlightAware (Why Join?)
  • Login
  • US Flag 
03:49PM EDT


 

Airport Tracker/Info


-or-


 

Live Flight TrackerFlight Track Log ✈ N516QS ✈ 03-Jul-2013 ✈ LYBE / BEG - KBGR

Flight Track Log - Related Links

Times and Time Zones

All times are in EDT time to prevent confusion due to time zone crossing. See the N516QS flight status page for this flight to view local times or setup timezone preferences in your user account.

Time Position Orientation Groundspeed Altitude Reporting Facility
EDT Latitude Longitude Course Direction KTS MPH feet Rate Location/Type
12:40PM 44.8876 20.1684 305° West  Level Estimated
12:41PM 44.9565 20.0274 305° West  Level Estimated
12:42PM 45.0253 19.8860 305° West  Level Estimated
12:43PM 45.0938 19.7442 304° West  Level Estimated
12:44PM 45.1623 19.6021 304° West  Level Estimated
12:45PM 45.2305 19.4597 304° West  Level Estimated
12:46PM 45.2986 19.3170 304° West  Level Estimated
12:47PM 45.3664 19.1738 304° West  Level Estimated
12:48PM 45.4341 19.0304 304° West  Level Estimated
12:49PM 45.5017 18.8866 304° West  Level Estimated
12:50PM 45.5690 18.7425 304° West  Level Estimated
12:51PM 45.6362 18.5980 304° West  Level Estimated
12:52PM 45.7031 18.4532 304° West  Level Estimated
12:53PM 45.7699 18.3080 303° West  Level Estimated
12:54PM 45.8365 18.1625 303° West  Level Estimated
12:55PM 45.9030 18.0166 303° West  Level Estimated
12:56PM 45.9692 17.8704 303° West  Level Estimated
12:57PM 46.0353 17.7238 303° West  Level Estimated
12:58PM 46.1011 17.5769 303° West  Level Estimated
12:59PM 46.1668 17.4296 303° West  Level Estimated
01:00PM 46.2323 17.2820 303° West  Level Estimated
01:01PM 46.2976 17.1340 303° West  Level Estimated
01:02PM 46.3627 16.9857 302° West  Level Estimated
01:03PM 46.4276 16.8370 302° West  Level Estimated
01:04PM 46.4923 16.6880 302° West  Level Estimated
01:05PM 46.5568 16.5386 302° West  Level Estimated
01:06PM 46.6212 16.3888 302° West  Level Estimated
01:07PM 46.6853 16.2387 302° West  Level Estimated
01:08PM 46.7492 16.0883 302° West  Level Estimated
01:09PM 46.8130 15.9374 302° West  Level Estimated
01:10PM 46.8765 15.7863 302° West  Level Estimated
01:11PM 46.9398 15.6347 302° West  Level Estimated
01:12PM 47.0030 15.4829 301° West  Level Estimated
01:13PM 47.0659 15.3306 301° West  Level Estimated
01:14PM 47.1287 15.1780 301° West  Level Estimated
01:15PM 47.1912 15.0250 301° West  Level Estimated
01:16PM 47.2535 14.8717 301° West  Level Estimated
01:17PM 47.3157 14.7180 301° West  Level Estimated
01:18PM 47.3776 14.5639 301° West  Level Estimated
01:19PM 47.4393 14.4095 301° West  Level Estimated
01:20PM 47.5008 14.2548 301° West  Level Estimated
01:21PM 47.5621 14.0996 300° West  Level Estimated
01:22PM 47.6232 13.9441 300° West  Level Estimated
01:23PM 47.6841 13.7883 300° West  Level Estimated
01:24PM 47.7447 13.6320 300° West  Level Estimated
01:25PM 47.8052 13.4754 300° West  Level Estimated
01:26PM 47.8654 13.3185 300° West  Level Estimated
01:27PM 47.9254 13.1612 300° West  Level Estimated
01:28PM 47.9852 13.0035 300° West  Level Estimated
01:29PM 48.0448 12.8455 299° West  Level Estimated
01:30PM 48.1042 12.6870 299° West  Level Estimated
01:31PM 48.1634 12.5283 299° West  Level Estimated
01:32PM 48.2223 12.3691 299° West  Level Estimated
01:33PM 48.2810 12.2096 299° West  Level Estimated
01:34PM 48.3395 12.0497 299° West  Level Estimated
01:35PM 48.3978 11.8895 299° West  Level Estimated
01:36PM 48.4558 11.7289 299° West  Level Estimated
01:37PM 48.5137 11.5679 299° West  Level Estimated
01:38PM 48.5713 11.4065 298° West  Level Estimated
01:39PM 48.6287 11.2448 298° West  Level Estimated
01:40PM 48.6858 11.0828 298° West  Level Estimated
01:41PM 48.7427 10.9203 298° West  Level Estimated
01:42PM 48.7994 10.7575 298° West  Level Estimated
01:43PM 48.8559 10.5943 298° West  Level Estimated
01:44PM 48.9121 10.4307 298° West  Level Estimated
01:45PM 48.9681 10.2668 298° West  Level Estimated
01:46PM 49.0239 10.1025 297° West  Level Estimated
01:47PM 49.0794 9.9379 297° West  Level Estimated
01:48PM 49.1347 9.7729 297° West  Level Estimated
01:49PM 49.1898 9.6075 297° West  Level Estimated
01:50PM 49.2446 9.4417 297° West  Level Estimated
01:51PM 49.2992 9.2756 297° West  Level Estimated
01:52PM 49.3535 9.1091 297° West  Level Estimated
01:53PM 49.4076 8.9422 297° West  Level Estimated
01:54PM 49.4615 8.7750 296° West  Level Estimated
01:55PM 49.5151 8.6074 296° West  Level Estimated
01:56PM 49.5685 8.4395 296° West  Level Estimated
01:57PM 49.6217 8.2711 296° West  Level Estimated
01:58PM 49.6746 8.1024 296° West  Level Estimated
01:59PM 49.7272 7.9334 296° West  Level Estimated
02:00PM 49.7796 7.7639 296° West  Level Estimated
02:01PM 49.8318 7.5941 296° West  Level Estimated
02:02PM 49.8837 7.4240 295° West  Level Estimated
02:03PM 49.9354 7.2534 295° West  Level Estimated
02:04PM 49.9868 7.0826 295° West  Level Estimated
02:05PM 50.0379 6.9113 295° West  Level Estimated
02:06PM 50.0888 6.7397 295° West  Level Estimated
02:07PM 50.1395 6.5677 295° West  Level Estimated
02:08PM 50.1899 6.3953 295° West  Level Estimated
02:09PM 50.2400 6.2226 294° West  Level Estimated
02:10PM 50.2899 6.0496 294° West  Level Estimated
02:11PM 50.3396 5.8761 294° West  Level Estimated
02:12PM 50.3889 5.7023 294° West  Level Estimated
02:13PM 50.4380 5.5282 294° West  Level Estimated
02:14PM 50.4869 5.3536 294° West  Level Estimated
02:15PM 50.5355 5.1788 294° West  Level Estimated
02:16PM 50.5838 5.0035 294° West  Level Estimated
02:17PM 50.6319 4.8279 293° West  Level Estimated
02:18PM 50.6797 4.6520 293° West  Level Estimated
02:19PM 50.7272 4.4756 293° West  Level Estimated
02:20PM 50.7745 4.2990 293° West  Level Estimated
02:21PM 50.8215 4.1219 293° West  Level Estimated
02:22PM 50.8682 3.9446 293° West  Level Estimated
02:23PM 50.9146 3.7668 293° West  Level Estimated
02:24PM 50.9608 3.5887 292° West  Level Estimated
02:25PM 51.0068 3.4103 292° West  Level Estimated
02:26PM 51.0524 3.2315 292° West  Level Estimated
02:27PM 51.0978 3.0523 292° West  Level Estimated
02:28PM 51.1429 2.8728 292° West  Level Estimated
02:29PM 51.1877 2.6930 292° West  Level Estimated
02:30PM 51.2323 2.5128 292° West  Level Estimated
02:31PM 51.2765 2.3322 291° West  Level Estimated
02:32PM 51.3205 2.1513 291° West  Level Estimated
02:33PM 51.3642 1.9701 291° West  Level Estimated
02:34PM 51.4076 1.7885 291° West  Level Estimated
02:35PM 51.4508 1.6066 291° West  Level Estimated
02:36PM 51.4937 1.4243 291° West  Level Estimated
02:37PM 51.5363 1.2417 291° West  Level Estimated
02:38PM 51.5786 1.0587 290° West  Level Estimated
02:39PM 51.6206 0.8754 290° West  Level Estimated
02:40PM 51.6623 0.6918 290° West  Level Estimated
02:41PM 51.7038 0.5078 290° West  Level Estimated
02:42PM 51.7449 0.3235 290° West  Level Estimated
02:43PM 51.7858 0.1388 290° West  Level Estimated
02:44PM 51.8264 -0.0461 290° West  Level Estimated
02:45PM 51.8666 -0.2315 289° West  Level Estimated
02:46PM 51.9067 -0.4171 289° West  Level Estimated
02:47PM 51.9464 -0.6031 289° West  Level Estimated
02:48PM 51.9858 -0.7894 289° West  Level Estimated
02:49PM 52.0249 -0.9760 289° West  Level Estimated
02:50PM 52.0637 -1.1630 289° West  Level Estimated
02:51PM 52.1022 -1.3502 289° West  Level Estimated
02:52PM 52.1404 -1.5378 288° West  Level Estimated
02:53PM 52.1784 -1.7257 288° West  Level Estimated
02:54PM 52.2160 -1.9140 288° West  Level Estimated
02:55PM 52.2533 -2.1026 288° West  Level Estimated
02:56PM 52.2904 -2.2914 288° West  Level Estimated
02:57PM 52.3271 -2.4806 288° West  Level Estimated
02:58PM 52.3635 -2.6701 288° West  Level Estimated
02:59PM 52.3996 -2.8599 287° West  Level Estimated
03:00PM 52.4355 -3.0501 287° West  Level Estimated
03:01PM 52.4710 -3.2405 287° West  Level Estimated
03:02PM 52.5062 -3.4312 287° West  Level Estimated
03:03PM 52.5411 -3.6223 287° West  Level Estimated
03:04PM 52.5756 -3.8136 287° West  Level Estimated
03:05PM 52.6099 -4.0053 286° West  Level Estimated
03:06PM 52.6439 -4.1972 286° West  Level Estimated
03:07PM 52.6776 -4.3895 286° West  Level Estimated
03:08PM 52.7109 -4.5820 286° West  Level Estimated
03:09PM 52.7439 -4.7748 286° West  Level Estimated
03:10PM 52.7767 -4.9679 286° West  Level Estimated
03:11PM 52.8091 -5.1613 286° West  Level Estimated
03:12PM 52.8412 -5.3551 285° West  Level Estimated
03:13PM 52.8730 -5.5490 285° West  Level Estimated
03:14PM 52.9044 -5.7433 285° West  Level Estimated
03:15PM 52.9356 -5.9378 285° West  Level Estimated
03:16PM 52.9664 -6.1327 285° West  Level Estimated
03:17PM 52.9969 -6.3278 285° West  Level Estimated
03:18PM 53.0271 -6.5232 284° West  Level Estimated
03:19PM 53.0569 -6.7188 284° West  Level Estimated
03:20PM 53.0865 -6.9147 284° West  Level Estimated
03:21PM 53.1157 -7.1109 284° West  Level Estimated
03:22PM 53.1446 -7.3074 284° West  Level Estimated
03:23PM 53.1732 -7.5041 284° West  Level Estimated
03:24PM 53.2014 -7.7011 284° West  Level Estimated
03:25PM 53.2294 -7.8983 283° West  Level Estimated
03:26PM 53.2570 -8.0958 283° West  Level Estimated
03:27PM 53.2842 -8.2935 283° West  Level Estimated
03:28PM 53.3112 -8.4915 283° West  Level Estimated
03:29PM 53.3378 -8.6898 283° West  Level Estimated
03:30PM 53.3641 -8.8883 283° West  Level Estimated
03:31PM 53.3901 -9.0870 282° West  Level Estimated
03:32PM 53.4157 -9.2859 282° West  Level Estimated
03:33PM 53.4410 -9.4852 282° West  Level Estimated
03:34PM 53.4660 -9.6846 282° West  Level Estimated
03:35PM 53.4906 -9.8843 282° West  Level Estimated
03:36PM 53.5149 -10.0842 282° West  Level Estimated
03:37PM 53.5389 -10.2843 281° West  Level Estimated
03:38PM 53.5625 -10.4847 281° West  Level Estimated
03:39PM 53.5858 -10.6853 281° West  Level Estimated
03:40PM 53.6087 -10.8861 281° West  Level Estimated
03:41PM 53.6314 -11.0871 281° West  Level Estimated
03:42PM 53.6537 -11.2884 281° West  Level Estimated
03:43PM 53.6756 -11.4898 281° West  Level Estimated
03:44PM 53.6972 -11.6915 280° West  Level Estimated
03:45PM 53.7185 -11.8933 280° West  Level Estimated
03:46PM 53.7394 -12.0954 280° West  Level Estimated
03:47PM 53.7600 -12.2977 280° West  Level Estimated
03:48PM 53.7803 -12.5001 280° West  Level Estimated
03:49PM 53.8002 -12.7028 280° West  Level Estimated
03:50PM 53.8197 -12.9056 279° West  Level Estimated
03:51PM 53.8390 -13.1087 279° West  Level Estimated
03:52PM 53.8578 -13.3119 279° West  Level Estimated
03:53PM 53.8764 -13.5153 279° West  Level Estimated
03:54PM 53.8946 -13.7189 279° West  Level Estimated
03:55PM 53.9124 -13.9226 279° West  Level Estimated
03:56PM 53.9300 -14.1266 278° West  Level Estimated
03:57PM 53.9471 -14.3307 278° West  Level Estimated
03:58PM 53.9639 -14.5349 278° West  Level Estimated
03:59PM 53.9804 -14.7394 278° West  Level Estimated
04:00PM 53.9965 -14.9439 278° West  Level Estimated
04:01PM 54.0123 -15.1487 278° West  Level Estimated
04:02PM 54.0277 -15.3536 277° West  Level Estimated
04:03PM 54.0428 -15.5586 277° West  Level Estimated
04:04PM 54.0575 -15.7638 277° West  Level Estimated
04:05PM 54.0719 -15.9692 277° West  Level Estimated
04:06PM 54.0859 -16.1747 277° West  Level Estimated
04:07PM 54.0996 -16.3803 277° West  Level Estimated
04:08PM 54.1129 -16.5860 276° West  Level Estimated
04:09PM 54.1259 -16.7919 276° West  Level Estimated
04:10PM 54.1385 -16.9979 276° West  Level Estimated
04:11PM 54.1508 -17.2041 276° West  Level Estimated
04:12PM 54.1627 -17.4103 276° West  Level Estimated
04:13PM 54.1743 -17.6167 276° West  Level Estimated
04:14PM 54.1855 -17.8232 275° West  Level Estimated
04:15PM 54.1964 -18.0297 275° West  Level Estimated
04:16PM 54.2069 -18.2364 275° West  Level Estimated
04:17PM 54.2170 -18.4432 275° West  Level Estimated
04:18PM 54.2268 -18.6501 275° West  Level Estimated
04:19PM 54.2363 -18.8571 275° West  Level Estimated
04:20PM 54.2453 -19.0642 274° West  Level Estimated
04:21PM 54.2541 -19.2714 274° West  Level Estimated
04:22PM 54.2625 -19.4787 274° West  Level Estimated
04:23PM 54.2705 -19.6860 274° West  Level Estimated
04:24PM 54.2781 -19.8935 274° West  Level Estimated
04:25PM 54.2854 -20.1010 274° West  Level Estimated
04:26PM 54.2924 -20.3085 273° West  Level Estimated
04:27PM 54.2990 -20.5162 273° West  Level Estimated
04:28PM 54.3052 -20.7239 273° West  Level Estimated
04:29PM 54.3111 -20.9317 273° West  Level Estimated
04:30PM 54.3167 -21.1395 273° West  Level Estimated
04:31PM 54.3218 -21.3474 273° West  Level Estimated
04:32PM 54.3266 -21.5553 272° West  Level Estimated
04:33PM 54.3311 -21.7633 272° West  Level Estimated
04:34PM 54.3352 -21.9713 272° West  Level Estimated
04:35PM 54.3389 -22.1794 272° West  Level Estimated
04:36PM 54.3423 -22.3875 272° West  Level Estimated
04:37PM 54.3453 -22.5956 272° West  Level Estimated
04:38PM 54.3480 -22.8038 271° West  Level Estimated
04:39PM 54.3503 -23.0120 271° West  Level Estimated
04:40PM 54.3522 -23.2202 271° West  Level Estimated
04:41PM 54.3538 -23.4284 271° West  Level Estimated
04:42PM 54.3551 -23.6366 271° West  Level Estimated
04:43PM 54.3559 -23.8449 270° West  Level Estimated
04:44PM 54.3565 -24.0532 270° West  Level Estimated
04:45PM 54.3566 -24.2614 270° West  Level Estimated
04:46PM 54.3564 -24.4697 270° West  Level Estimated
04:47PM 54.3559 -24.6779 270° West  Level Estimated
04:48PM 54.3549 -24.8862 270° West  Level Estimated
04:49PM 54.3537 -25.0944 269° West  Level Estimated
04:50PM 54.3520 -25.3026 269° West  Level Estimated
04:51PM 54.3500 -25.5109 269° West  Level Estimated
04:52PM 54.3477 -25.7190 269° West  Level Estimated
04:53PM 54.3450 -25.9272 269° West  Level Estimated
04:54PM 54.3419 -26.1353 269° West  Level Estimated
04:55PM 54.3385 -26.3434 268° West  Level Estimated
04:56PM 54.3347 -26.5515 268° West  Level Estimated
04:57PM 54.3306 -26.7595 268° West  Level Estimated
04:58PM 54.3260 -26.9675 268° West  Level Estimated
04:59PM 54.3212 -27.1754 268° West  Level Estimated
05:00PM 54.3160 -27.3833 268° West  Level Estimated
05:01PM 54.3104 -27.5911 267° West  Level Estimated
05:02PM 54.3045 -27.7989 267° West  Level Estimated
05:03PM 54.2982 -28.0066 267° West  Level Estimated
05:04PM 54.2915 -28.2142 267° West  Level Estimated
05:05PM 54.2845 -28.4218 267° West  Level Estimated
05:06PM 54.2772 -28.6293 267° West  Level Estimated
05:07PM 54.2695 -28.8367 266° West  Level Estimated
05:08PM 54.2614 -29.0440 266° West  Level Estimated
05:09PM 54.2530 -29.2513 266° West  Level Estimated
05:10PM 54.2442 -29.4585 266° West  Level Estimated
05:11PM 54.2351 -29.6656 266° West  Level Estimated
05:12PM 54.2256 -29.8725 266° West  Level Estimated
05:13PM 54.2157 -30.0794 265° West  Level Estimated
05:14PM 54.2055 -30.2862 265° West  Level Estimated
05:15PM 54.1950 -30.4929 265° West  Level Estimated
05:16PM 54.1841 -30.6995 265° West  Level Estimated
05:17PM 54.1728 -30.9060 265° West  Level Estimated
05:18PM 54.1612 -31.1123 265° West  Level Estimated
05:19PM 54.1493 -31.3186 264° West  Level Estimated
05:20PM 54.1369 -31.5247 264° West  Level Estimated
05:21PM 54.1243 -31.7307 264° West  Level Estimated
05:22PM 54.1113 -31.9365 264° West  Level Estimated
05:23PM 54.0979 -32.1423 264° West  Level Estimated
05:24PM 54.0842 -32.3479 264° West  Level Estimated
05:25PM 54.0701 -32.5533 263° West  Level Estimated
05:26PM 54.0557 -32.7587 263° West  Level Estimated
05:27PM 54.0409 -32.9638 263° West  Level Estimated
05:28PM 54.0258 -33.1689 263° West  Level Estimated
05:29PM 54.0103 -33.3737 263° West  Level Estimated
05:30PM 53.9945 -33.5785 263° West  Level Estimated
05:31PM 53.9783 -33.7830 262° West  Level Estimated
05:32PM 53.9618 -33.9874 262° West  Level Estimated
05:33PM 53.9450 -34.1917 262° West  Level Estimated
05:34PM 53.9278 -34.3958 262° West  Level Estimated
05:35PM 53.9102 -34.5997 262° West  Level Estimated
05:36PM 53.8923 -34.8034 262° West  Level Estimated
05:37PM 53.8741 -35.0070 261° West  Level Estimated
05:38PM 53.8555 -35.2103 261° West  Level Estimated
05:39PM 53.8366 -35.4135 261° West  Level Estimated
05:40PM 53.8173 -35.6166 261° West  Level Estimated
05:41PM 53.7977 -35.8194 261° West  Level Estimated
05:42PM 53.7777 -36.0220 261° West  Level Estimated
05:43PM 53.7574 -36.2244 260° West  Level Estimated
05:44PM 53.7368 -36.4267 260° West  Level Estimated
05:45PM 53.7158 -36.6287 260° West  Level Estimated
05:46PM 53.6945 -36.8306 260° West  Level Estimated
05:47PM 53.6729 -37.0322 260° West  Level Estimated
05:48PM 53.6509 -37.2336 260° West  Level Estimated
05:49PM 53.6285 -37.4348 259° West  Level Estimated
05:50PM 53.6059 -37.6358 259° West  Level Estimated
05:51PM 53.5829 -37.8366 259° West  Level Estimated
05:52PM 53.5595 -38.0372 259° West  Level Estimated
05:53PM 53.5359 -38.2375 259° West  Level Estimated
05:54PM 53.5118 -38.4376 259° West  Level Estimated
05:55PM 53.4875 -38.6375 259° West  Level Estimated
05:56PM 53.4628 -38.8371 258° West  Level Estimated
05:57PM 53.4378 -39.0366 258° West  Level Estimated
05:58PM 53.4125 -39.2357 258° West  Level Estimated
05:59PM 53.3868 -39.4347 258° West  Level Estimated
06:00PM 53.3608 -39.6334 258° West  Level Estimated
06:01PM 53.3345 -39.8318 258° West  Level Estimated
06:02PM 53.3078 -40.0300 257° West  Level Estimated
06:03PM 53.2808 -40.2280 257° West  Level Estimated
06:04PM 53.2535 -40.4257 257° West  Level Estimated
06:05PM 53.2259 -40.6232 257° West  Level Estimated
06:06PM 53.1979 -40.8204 257° West  Level Estimated
06:07PM 53.1696 -41.0173 257° West  Level Estimated
06:08PM 53.1410 -41.2140 256° West  Level Estimated
06:09PM 53.1120 -41.4104 256° West  Level Estimated
06:10PM 53.0828 -41.6066 256° West  Level Estimated
06:11PM 53.0532 -41.8024 256° West  Level Estimated
06:12PM 53.0233 -41.9981 256° West  Level Estimated
06:13PM 52.9930 -42.1934 256° West  Level Estimated
06:14PM 52.9625 -42.3885 255° West  Level Estimated
06:15PM 52.9316 -42.5833 255° West  Level Estimated
06:16PM 52.9005 -42.7778 255° West  Level Estimated
06:17PM 52.8689 -42.9720 255° West  Level Estimated
06:18PM 52.8371 -43.1660 255° West  Level Estimated
06:19PM 52.8050 -43.3596 255° West  Level Estimated
06:20PM 52.7725 -43.5530 255° West  Level Estimated
06:21PM 52.7398 -43.7461 254° West  Level Estimated
06:22PM 52.7067 -43.9389 254° West  Level Estimated
06:23PM 52.6733 -44.1314 254° West  Level Estimated
06:24PM 52.6396 -44.3236 254° West  Level Estimated
06:25PM 52.6056 -44.5155 254° West  Level Estimated
06:26PM 52.5713 -44.7071 254° West  Level Estimated
06:27PM 52.5367 -44.8984 253° West  Level Estimated
06:28PM 52.5017 -45.0894 253° West  Level Estimated
06:29PM 52.4665 -45.2801 253° West  Level Estimated
06:30PM 52.4309 -45.4705 253° West  Level Estimated
06:31PM 52.3951 -45.6606 253° West  Level Estimated
06:32PM 52.3589 -45.8503 253° West  Level Estimated
06:33PM 52.3225 -46.0398 253° West  Level Estimated
06:34PM 52.2857 -46.2290 252° West  Level Estimated
06:35PM 52.2486 -46.4178 252° West  Level Estimated
06:36PM 52.2113 -46.6063 252° West  Level Estimated
06:37PM 52.1736 -46.7945 252° West  Level Estimated
06:38PM 52.1356 -46.9824 252° West  Level Estimated
06:39PM 52.0974 -47.1699 252° West  Level Estimated
06:40PM 52.0588 -47.3572 252° West  Level Estimated
06:41PM 52.0200 -47.5441 251° West  Level Estimated
06:42PM 51.9808 -47.7307 251° West  Level Estimated
06:43PM 51.9413 -47.9170 251° West  Level Estimated
06:44PM 51.9016 -48.1029 251° West  Level Estimated
06:45PM 51.8616 -48.2885 251° West  Level Estimated
06:46PM 51.8213 -48.4738 251° West  Level Estimated
06:47PM 51.7807 -48.6587 251° West  Level Estimated
06:48PM 51.7397 -48.8433 250° West  Level Estimated
06:49PM 51.6986 -49.0276 250° West  Level Estimated
06:50PM 51.6571 -49.2115 250° West  Level Estimated
06:51PM 51.6153 -49.3951 250° West  Level Estimated
06:52PM 51.5733 -49.5783 250° West  Level Estimated
06:53PM 51.5309 -49.7613 250° West  Level Estimated
06:54PM 51.4883 -49.9438 250° West  Level Estimated
06:55PM 51.4454 -50.1261 249° West  Level Estimated
06:56PM 51.4022 -50.3080 249° West  Level Estimated
06:57PM 51.3587 -50.4895 249° West  Level Estimated
06:58PM 51.3150 -50.6707 249° West  Level Estimated
06:59PM 51.2710 -50.8516 249° West  Level Estimated
07:00PM 51.2267 -51.0321 249° West  Level Estimated
07:01PM 51.1821 -51.2122 249° West  Level Estimated
07:02PM 51.1372 -51.3920 248° West  Level Estimated
07:03PM 51.0921 -51.5715 248° West  Level Estimated
07:04PM 51.0467 -51.7506 248° West  Level Estimated
07:05PM 51.0010 -51.9294 248° West  Level Estimated
07:06PM 50.9551 -52.1078 248° West  Level Estimated
07:07PM 50.9088 -52.2858 248° West  Level Estimated
07:08PM 50.8623 -52.4635 248° West  Level Estimated
07:09PM 50.8156 -52.6409 247° West  Level Estimated
07:10PM 50.7686 -52.8178 247° West  Level Estimated
07:11PM 50.7212 -52.9945 247° West  Level Estimated
07:12PM 50.6737 -53.1707 247° West  Level Estimated
07:13PM 50.6259 -53.3466 247° West  Level Estimated
07:14PM 50.5778 -53.5222 247° West  Level Estimated
07:15PM 50.5294 -53.6974 247° West  Level Estimated
07:16PM 50.4808 -53.8722 246° West  Level Estimated
07:17PM 50.4319 -54.0467 246° West  Level Estimated
07:18PM 50.3828 -54.2208 246° West  Level Estimated
07:19PM 50.3334 -54.3946 246° West  Level Estimated
07:20PM 50.2837 -54.5680 246° West  Level Estimated
07:21PM 50.2338 -54.7410 246° West  Level Estimated
07:22PM 50.1836 -54.9137 246° West  Level Estimated
07:23PM 50.1332 -55.0860 246° West  Level Estimated
07:24PM 50.0825 -55.2579 245° Southwest  Level Estimated
07:25PM 50.0316 -55.4295 245° Southwest  Level Estimated
07:26PM 49.9804 -55.6007 245° Southwest  Level Estimated
07:27PM 49.9289 -55.7715 245° Southwest  Level Estimated
07:28PM 49.8772 -55.9420 245° Southwest  Level Estimated
07:29PM 49.8253 -56.1121 245° Southwest  Level Estimated
07:30PM 49.7731 -56.2819 245° Southwest  Level Estimated
07:31PM 49.7207 -56.4513 244° Southwest  Level Estimated
07:32PM 49.6680 -56.6203 244° Southwest  Level Estimated
07:33PM 49.6151 -56.7889 244° Southwest  Level Estimated
07:34PM 49.5619 -56.9572 244° Southwest  Level Estimated
07:35PM 49.5085 -57.1251 244° Southwest  Level Estimated
07:36PM 49.4548 -57.2927 244° Southwest  Level Estimated
07:37PM 49.4009 -57.4599 244° Southwest  Level Estimated
07:38PM 49.3468 -57.6267 244° Southwest  Level Estimated
07:39PM 49.2924 -57.7931 243° Southwest  Level Estimated
07:40PM 49.2378 -57.9592 243° Southwest  Level Estimated
07:41PM 49.1829 -58.1249 243° Southwest  Level Estimated
07:42PM 49.1278 -58.2902 243° Southwest  Level Estimated
07:43PM 49.0725 -58.4552 243° Southwest  Level Estimated
07:44PM 49.0169 -58.6198 243° Southwest  Level Estimated
07:45PM 48.9611 -58.7841 243° Southwest  Level Estimated
07:46PM 48.9051 -58.9479 243° Southwest  Level Estimated
07:47PM 48.8488 -59.1115 242° Southwest  Level Estimated
07:48PM 48.7923 -59.2746 242° Southwest  Level Estimated
07:49PM 48.7356 -59.4374 242° Southwest  Level Estimated
07:50PM 48.6787 -59.5998 242° Southwest  Level Estimated
07:51PM 48.6215 -59.7618 242° Southwest  Level Estimated
07:52PM 48.5641 -59.9235 242° Southwest  Level Estimated
07:53PM 48.5065 -60.0848 242° Southwest  Level Estimated
07:54PM 48.4486 -60.2457 242° Southwest  Level Estimated
07:55PM 48.3905 -60.4063 241° Southwest  Level Estimated
07:56PM 48.3322 -60.5665 241° Southwest  Level Estimated
07:57PM 48.2737 -60.7263 241° Southwest  Level Estimated
07:58PM 48.2150 -60.8858 241° Southwest  Level Estimated
07:59PM 48.1560 -61.0449 241° Southwest  Level Estimated
08:00PM 48.0968 -61.2036 241° Southwest  Level Estimated
08:01PM 48.0374 -61.3620 241° Southwest  Level Estimated
08:02PM 47.9778 -61.5200 241° Southwest  Level Estimated
08:03PM 47.9179 -61.6776 241° Southwest  Level Estimated
08:04PM 47.8579 -61.8349 240° Southwest  Level Estimated
08:05PM 47.7976 -61.9918 240° Southwest  Level Estimated
08:06PM 47.7371 -62.1483 240° Southwest  Level Estimated
08:07PM 47.6764 -62.3045 240° Southwest  Level Estimated
08:08PM 47.6156 -62.4603 240° Southwest  Level Estimated
08:09PM 47.5544 -62.6158 240° Southwest  Level Estimated
08:10PM 47.4931 -62.7709 240° Southwest  Level Estimated
08:11PM 47.4316 -62.9256 240° Southwest  Level Estimated
08:12PM 47.3699 -63.0800 239° Southwest  Level Estimated
08:13PM 47.3079 -63.2340 239° Southwest  Level Estimated
08:14PM 47.2458 -63.3876 239° Southwest  Level Estimated
08:15PM 47.1834 -63.5409 239° Southwest  Level Estimated
08:16PM 47.1208 -63.6938 239° Southwest  Level Estimated
08:17PM 47.0581 -63.8464 239° Southwest  Level Estimated
08:18PM 46.9951 -63.9986 239° Southwest  Level Estimated
08:19PM 46.9319 -64.1504 239° Southwest  Level Estimated
08:20PM 46.8686 -64.3019 239° Southwest  Level Estimated
08:21PM 46.8050 -64.4530 238° Southwest  Level Estimated
08:22PM 46.7412 -64.6038 238° Southwest  Level Estimated
08:23PM 46.6773 -64.7542 238° Southwest  Level Estimated
08:24PM 46.6131 -64.9043 238° Southwest  Level Estimated
08:25PM 46.5488 -65.0540 238° Southwest  Level Estimated
08:26PM 46.4842 -65.2033 238° Southwest  Level Estimated
08:27PM 46.4195 -65.3523 238° Southwest  Level Estimated
08:28PM 46.3545 -65.5009 238° Southwest  Level Estimated
08:29PM 46.2894 -65.6492 238° Southwest  Level Estimated
08:30PM 46.2241 -65.7972 237° Southwest  Level Estimated
08:31PM 46.1586 -65.9447 237° Southwest  Level Estimated
08:32PM 46.0929 -66.0920 237° Southwest  Level Estimated
08:33PM 46.0270 -66.2389 237° Southwest  Level Estimated
08:34PM 45.9609 -66.3854 237° Southwest  Level Estimated
08:35PM 45.8946 -66.5316 237° Southwest  Level Estimated
08:36PM 45.8282 -66.6774 237° Southwest  Level Estimated
08:37PM 45.7616 -66.8229 237° Southwest  Level Estimated
08:38PM 45.6948 -66.9680 237° Southwest  Level Estimated
08:39PM 45.6278 -67.1128 237° Southwest  Level Estimated
08:40PM 45.5606 -67.2572 236° Southwest  Level Estimated
08:41PM 45.4932 -67.4013 236° Southwest  Level Estimated
08:42PM 45.4257 -67.5451 236° Southwest  Level Estimated
08:43PM 45.3579 -67.6885 236° Southwest  Level Estimated
08:44PM 45.2900 -67.8316 236° Southwest  Level Estimated
08:45PM 45.2220 -67.9743 236° Southwest  Level Estimated
08:46PM 45.1537 -68.1167 236° Southwest  Level Estimated
08:47PM 45.0853 -68.2587 236° Southwest  Level Estimated
08:48PM 45.0166 -68.4004 236° Southwest  Level Estimated
08:49PM 44.9478 -68.5417 236° Southwest  Level Estimated
08:50PM 44.8789 -68.6828 235° Southwest  Level Estimated
08:51PM 44.8097 -68.8234 235° Southwest  Level Estimated
08:52PM 44.8074 -68.8281 235° Southwest  Level Estimated
08:53PM 44.8074 -68.8281 10° North  Level Estimated
08:54PM 44.8074 -68.8281 10° North  Level Estimated
08:55PM 44.8074 -68.8281 10° North  Level Estimated
08:56PM 44.8074 -68.8281 10° North  Level Estimated
08:57PM 44.8074 -68.8281 10° North  Level Estimated
08:58PM 44.8074 -68.8281 10° North  Level Estimated
08:59PM 44.8074 -68.8281 10° North  Level Estimated
09:00PM 44.8074 -68.8281 10° North  Level Estimated
09:01PM 44.8074 -68.8281 10° North  Level Estimated
09:02PM 44.8074 -68.8281 10° North  Level Estimated
09:03PM 44.8074 -68.8281 10° North  Level Estimated
09:04PM 44.8074 -68.8281 10° North  Level Estimated
09:05PM 44.8074 -68.8281 10° North  Level Estimated
09:06PM 44.8074 -68.8281 10° North  Level Estimated
09:07PM 44.8074 -68.8281 10° North  Level Estimated